createdAt,value
2023-03-29T00:02:02.064Z,5.4
2023-03-29T00:24:29.870Z,5.5
2023-03-29T00:28:33.722Z,5.4
2023-03-29T00:40:48.622Z,5.5
2023-03-29T00:42:50.602Z,5.4
2023-03-29T00:43:53.183Z,5.5
2023-03-29T00:49:58.999Z,5.6
2023-03-29T00:52:04.182Z,5.5
2023-03-29T00:54:06.135Z,5.4
2023-03-29T00:58:10.039Z,5.6
2023-03-29T01:00:11.983Z,5.5
2023-03-29T01:02:13.999Z,5.4
2023-03-29T01:04:15.878Z,5.5
2023-03-29T01:06:21.018Z,5.5
2023-03-29T01:08:23.032Z,5.6
2023-03-29T01:10:24.946Z,5.5
2023-03-29T01:12:26.896Z,5.5
2023-03-29T01:14:28.851Z,5.6
2023-03-29T01:18:32.749Z,5.6
2023-03-29T01:20:37.920Z,5.4
2023-03-29T01:22:39.853Z,5.4
2023-03-29T01:24:41.910Z,5.6
2023-03-29T01:28:45.714Z,5.5
2023-03-29T01:32:49.722Z,5.6
2023-03-29T01:36:56.755Z,5.5
2023-03-29T01:41:27.615Z,5.6
2023-03-29T01:43:29.534Z,5.7
2023-03-29T01:45:31.520Z,5.8
2023-03-29T01:47:36.744Z,5.6
2023-03-29T01:51:40.581Z,5.7
2023-03-29T01:53:42.539Z,5.9
2023-03-29T01:55:44.477Z,6
2023-03-29T01:57:46.446Z,6
2023-03-29T02:01:54.595Z,6
2023-03-29T02:03:56.420Z,6.1
2023-03-29T02:05:58.337Z,6
2023-03-29T02:08:00.389Z,6
2023-03-29T02:10:02.344Z,6.1
2023-03-29T02:12:04.300Z,6
2023-03-29T02:20:15.265Z,6.1
2023-03-29T02:28:23.102Z,6.3
2023-03-29T02:30:28.294Z,6.2
2023-03-29T02:32:30.245Z,6.1
2023-03-29T02:34:32.169Z,6.1
2023-03-29T02:35:35.024Z,6.3
2023-03-29T02:39:38.683Z,6.3
2023-03-29T02:41:40.613Z,6.1
2023-03-29T02:47:49.749Z,6.2
2023-03-29T02:49:51.698Z,6.5
2023-03-29T02:51:53.623Z,6.4
2023-03-29T02:53:55.563Z,6.2
2023-03-29T02:55:57.541Z,6.3
2023-03-29T03:02:06.719Z,6.2
2023-03-29T03:04:08.629Z,6.2
2023-03-29T03:06:10.569Z,6.2
2023-03-29T03:14:21.570Z,5.9
2023-03-29T03:16:23.561Z,5.9
2023-03-29T03:24:31.318Z,6
2023-03-29T03:26:36.521Z,5.7
2023-03-29T03:28:38.480Z,5.8
2023-03-29T03:30:40.442Z,5.5
2023-03-29T03:31:43.117Z,5.9
2023-03-29T03:39:54.091Z,5.9
2023-03-29T03:48:01.916Z,5.9
2023-03-29T03:50:03.801Z,5.7
2023-03-29T03:52:05.781Z,5.6
2023-03-29T03:54:10.935Z,5.7
2023-03-29T03:58:14.865Z,5.8
2023-03-29T04:00:16.837Z,5.8
2023-03-29T04:02:18.777Z,5.8
2023-03-29T04:04:20.805Z,5.9
2023-03-29T04:06:22.661Z,5.7
2023-03-29T04:08:27.855Z,5.8
2023-03-29T04:12:31.735Z,5.8
2023-03-29T04:14:33.718Z,5.9
2023-03-29T04:16:35.657Z,5.8
2023-03-29T04:18:37.734Z,5.8
2023-03-29T04:20:39.562Z,5.8
2023-03-29T04:22:44.732Z,5.8
2023-03-29T04:26:48.626Z,6.1
2023-03-29T04:27:51.206Z,6.2
2023-03-29T04:29:53.147Z,5.9
2023-03-29T04:31:55.116Z,6
2023-03-29T04:33:59.102Z,6
2023-03-29T04:36:02.269Z,6.2
2023-03-29T04:40:06.165Z,5.9
2023-03-29T04:46:12.049Z,6.3
2023-03-29T05:00:28.876Z,6.2
2023-03-29T05:02:30.961Z,6.5
2023-03-29T05:04:36.084Z,6.5
2023-03-29T05:06:38.009Z,6.5
2023-03-29T05:08:39.950Z,6.5
2023-03-29T05:10:41.908Z,6.6
2023-03-29T05:12:43.877Z,6.4
2023-03-29T05:18:52.992Z,6.5
2023-03-29T05:25:27.284Z,6.4
2023-03-29T05:27:29.259Z,6.3
2023-03-29T05:29:31.217Z,6.6
2023-03-29T05:31:36.450Z,6.6
2023-03-29T05:35:40.331Z,6.6
2023-03-29T05:37:42.281Z,6.8
2023-03-29T05:51:59.267Z,6.8
2023-03-29T05:54:01.208Z,6.8
2023-03-29T06:10:20.065Z,6.9
2023-03-29T06:12:22.017Z,7
2023-03-29T06:14:27.218Z,7
2023-03-29T06:19:33.775Z,7
2023-03-29T06:23:37.694Z,7
2023-03-29T06:27:44.863Z,7.2
2023-03-29T06:29:46.820Z,7.3
2023-03-29T06:31:48.826Z,7.3
2023-03-29T06:35:52.719Z,7.2
2023-03-29T06:37:54.666Z,7.1
2023-03-29T06:39:56.646Z,7.4
2023-03-29T06:42:10.018Z,7.4
2023-03-29T06:48:07.977Z,7.5
2023-03-29T06:50:09.705Z,7.5
2023-03-29T06:52:11.641Z,7.4
2023-03-29T06:54:13.622Z,7.7
2023-03-29T06:56:18.787Z,7.6
2023-03-29T06:58:20.764Z,7.5
2023-03-29T07:04:26.710Z,7.9
2023-03-29T07:06:28.678Z,7.8
2023-03-29T07:12:37.780Z,7.9
2023-03-29T07:14:39.779Z,8.2
2023-03-29T07:15:42.376Z,8.4
2023-03-29T07:17:44.331Z,8.3
2023-03-29T07:21:48.271Z,8.7
2023-03-29T07:29:59.405Z,8.7
2023-03-29T07:32:01.364Z,8.6
2023-03-29T07:34:03.351Z,8.8
2023-03-29T07:36:05.334Z,8.8
2023-03-29T07:38:11.050Z,9.1
2023-03-29T07:42:14.481Z,9.2
2023-03-29T07:44:16.439Z,9.2
2023-03-29T07:48:20.409Z,9.5
2023-03-29T07:50:22.369Z,9.6
2023-03-29T08:11:51.257Z,10.7
2023-03-29T08:13:53.232Z,10.7
2023-03-29T08:15:55.119Z,10.7
2023-03-29T08:22:04.328Z,10.7
2023-03-29T08:26:08.354Z,10.4
2023-03-29T08:28:10.322Z,10.5
2023-03-29T08:32:14.278Z,10.4
2023-03-29T08:34:19.554Z,10.8
2023-03-29T08:38:23.521Z,10.9
2023-03-29T08:40:25.524Z,10.8
2023-03-29T08:42:27.528Z,11
2023-03-29T08:44:29.497Z,10.7
2023-03-29T08:46:35.479Z,10.8
2023-03-29T08:48:36.719Z,10.9
2023-03-29T08:50:38.725Z,10.8
2023-03-29T08:52:40.733Z,10.8
2023-03-29T08:54:42.702Z,10.6
2023-03-29T08:56:44.735Z,10.5
2023-03-29T08:58:46.725Z,11
2023-03-29T09:00:48.661Z,10.6
2023-03-29T09:02:54.032Z,10.8
2023-03-29T09:09:26.704Z,11
2023-03-29T09:11:28.722Z,11.1
2023-03-29T09:15:35.950Z,11.5
2023-03-29T09:19:40.286Z,11.3
2023-03-29T09:21:42.283Z,11.5
2023-03-29T09:23:44.245Z,11.4
2023-03-29T09:25:53.346Z,11
2023-03-29T09:27:48.267Z,11.3
2023-03-29T09:29:53.491Z,11.3
2023-03-29T09:31:55.517Z,11.1
2023-03-29T09:33:57.493Z,11.3
2023-03-29T09:35:59.399Z,11.5
2023-03-29T09:38:01.391Z,11.2
2023-03-29T09:40:05.058Z,11.4
2023-03-29T09:42:05.379Z,11.4
2023-03-29T09:50:29.568Z,11.4
2023-03-29T10:03:34.313Z,12.4
2023-03-29T10:05:36.200Z,12.2
2023-03-29T10:07:38.210Z,12.8
2023-03-29T10:09:40.209Z,12.8
2023-03-29T10:11:45.231Z,13.3
2023-03-29T10:13:47.161Z,13.5
2023-03-29T10:15:48.990Z,13.9
2023-03-29T10:17:50.908Z,13.3
2023-03-29T10:19:52.774Z,13
2023-03-29T10:21:54.660Z,13
2023-03-29T10:23:56.571Z,12.7
2023-03-29T10:30:05.377Z,12.6
2023-03-29T10:32:07.276Z,13
2023-03-29T10:34:09.126Z,13
2023-03-29T10:36:11.078Z,13.1
2023-03-29T10:40:17.949Z,13.3
2023-03-29T10:42:19.835Z,13.5
2023-03-29T10:44:21.744Z,13.7
2023-03-29T10:46:23.624Z,13.8
2023-03-29T10:48:25.511Z,13.3
2023-03-29T10:50:27.379Z,13.8
2023-03-29T10:54:34.294Z,13.7
2023-03-29T10:58:38.082Z,13.1
2023-03-29T10:59:40.581Z,13.6
2023-03-29T11:01:42.565Z,13.5
2023-03-29T11:05:46.207Z,13.5
2023-03-29T11:16:00.324Z,13.3
2023-03-29T11:18:02.196Z,13.2
2023-03-29T11:20:05.194Z,13.4
2023-03-29T11:22:09.089Z,13.1
2023-03-29T11:26:12.843Z,13.5
2023-03-29T11:28:14.720Z,13.7
2023-03-29T11:30:16.630Z,13.8
2023-03-29T11:32:18.542Z,13.7
2023-03-29T11:34:20.431Z,13.5
2023-03-29T11:40:29.201Z,13.2
2023-03-29T11:42:31.057Z,13.4
2023-03-29T11:44:32.940Z,13.8
2023-03-29T11:55:47.984Z,13.8
2023-03-29T11:57:49.896Z,14.5
2023-03-29T11:59:51.756Z,13.8
2023-03-29T12:01:53.699Z,13.8
2023-03-29T12:03:58.769Z,14
2023-03-29T12:06:00.517Z,14.3
2023-03-29T12:08:02.411Z,14.3
2023-03-29T12:10:04.277Z,14.2
2023-03-29T12:12:06.185Z,14
2023-03-29T12:14:08.038Z,13.8
2023-03-29T12:16:09.925Z,13.7
2023-03-29T12:18:15.392Z,13.5
2023-03-29T12:20:16.810Z,13.4
2023-03-29T12:22:18.722Z,12.9
2023-03-29T12:24:20.597Z,13
2023-03-29T12:28:24.377Z,12.2
2023-03-29T12:30:26.256Z,12.7
2023-03-29T12:32:31.321Z,13.1
2023-03-29T12:34:33.138Z,13
2023-03-29T12:36:35.066Z,12.9
2023-03-29T12:38:36.930Z,13
2023-03-29T12:42:40.698Z,13.1
2023-03-29T12:44:42.585Z,13.1
2023-03-29T12:46:47.667Z,13.3
2023-03-29T12:55:21.836Z,12.6
2023-03-29T12:57:23.767Z,12.2
2023-03-29T12:59:28.747Z,12.6
2023-03-29T13:07:36.338Z,12.6
2023-03-29T13:19:50.800Z,12.7
2023-03-29T13:21:52.684Z,12.4
2023-03-29T13:23:54.574Z,12.5
2023-03-29T13:25:56.466Z,12.5
2023-03-29T13:28:01.509Z,12.2
2023-03-29T13:32:05.273Z,12.4
2023-03-29T13:36:09.076Z,12.3
2023-03-29T13:46:21.802Z,12.2
2023-03-29T13:47:24.299Z,12.3
2023-03-29T13:53:30.108Z,12.4
2023-03-29T13:57:37.028Z,12.5
2023-03-29T13:59:38.900Z,12.6
2023-03-29T14:01:40.835Z,12.7
2023-03-29T14:07:46.577Z,13.1
2023-03-29T14:09:51.575Z,13.6
2023-03-29T14:11:53.450Z,13.6
2023-03-29T14:15:57.235Z,13.5
2023-03-29T14:18:00.646Z,13.2
2023-03-29T14:22:02.908Z,12.8
2023-03-29T14:24:07.904Z,13
2023-03-29T14:28:11.846Z,12.7
2023-03-29T14:32:15.493Z,12.4
2023-03-29T14:40:26.142Z,13
2023-03-29T14:42:28.029Z,12.6
2023-03-29T14:43:30.582Z,12.9
2023-03-29T14:45:32.461Z,13.1
2023-03-29T14:47:34.392Z,13
2023-03-29T14:49:36.214Z,13.1
2023-03-29T14:51:41.233Z,13.1
2023-03-29T14:57:46.931Z,13.2
2023-03-29T14:59:48.792Z,13.2
2023-03-29T15:03:54.740Z,13.2
2023-03-29T15:05:57.631Z,13.1
2023-03-29T15:07:59.522Z,13.2
2023-03-29T15:12:03.347Z,13.2
2023-03-29T15:14:05.221Z,13.3
2023-03-29T15:16:08.368Z,13.4
2023-03-29T15:18:09.327Z,13.4
2023-03-29T15:20:14.239Z,13.3
2023-03-29T15:22:16.134Z,13.5
2023-03-29T15:24:18.020Z,13.4
2023-03-29T15:26:19.912Z,13.6
2023-03-29T15:28:21.803Z,13.5
2023-03-29T15:30:23.749Z,13.2
2023-03-29T15:32:25.584Z,13.5
2023-03-29T15:34:30.588Z,13.2
2023-03-29T15:39:36.875Z,13.2
2023-03-29T15:41:38.783Z,13.4
2023-03-29T15:43:40.669Z,13.5
2023-03-29T15:45:42.540Z,13.5
2023-03-29T15:47:47.572Z,13.4
2023-03-29T15:49:49.459Z,13.5
2023-03-29T15:51:51.335Z,13.2
2023-03-29T15:55:55.089Z,13.1
2023-03-29T15:57:57.041Z,13.6
2023-03-29T15:59:58.894Z,13.3
2023-03-29T16:02:03.933Z,13.5
2023-03-29T16:04:05.778Z,13.5
2023-03-29T16:06:07.674Z,13.6
2023-03-29T16:08:09.574Z,13.5
2023-03-29T16:12:13.370Z,13.3
2023-03-29T16:18:22.256Z,13.3
2023-03-29T16:20:24.027Z,13.4
2023-03-29T16:22:25.893Z,13.4
2023-03-29T16:24:27.786Z,13.3
2023-03-29T16:26:29.672Z,13.4
2023-03-29T16:28:31.574Z,13.2
2023-03-29T16:30:36.598Z,13.5
2023-03-29T16:32:38.488Z,13.2
2023-03-29T16:34:40.391Z,13.5
2023-03-29T16:37:08.949Z,13.5
2023-03-29T16:53:27.195Z,13.7
2023-03-29T16:59:35.980Z,13.5
2023-03-29T17:01:37.907Z,13.8
2023-03-29T17:03:41.317Z,13.5
2023-03-29T17:05:43.151Z,13.5
2023-03-29T17:11:52.016Z,13.6
2023-03-29T17:13:53.843Z,13.6
2023-03-29T17:17:57.654Z,13.5
2023-03-29T17:19:59.516Z,13.6
2023-03-29T17:22:01.398Z,13.6
2023-03-29T17:26:08.308Z,13.5
2023-03-29T17:31:14.633Z,13.2
2023-03-29T17:33:16.504Z,13.5
2023-03-29T17:37:20.258Z,13.6
2023-03-29T17:39:25.329Z,13.2
2023-03-29T17:41:29.134Z,13.4
2023-03-29T17:43:29.122Z,13.2
2023-03-29T17:45:31.037Z,13.3
2023-03-29T17:47:32.917Z,13.5
2023-03-29T17:49:34.821Z,13.4
2023-03-29T17:51:36.705Z,13.3
2023-03-29T17:53:41.705Z,13.2
2023-03-29T17:55:43.588Z,13.3
2023-03-29T17:57:45.491Z,13.5
2023-03-29T17:59:47.394Z,13.3
2023-03-29T18:01:49.258Z,13
2023-03-29T18:03:51.135Z,13.3
2023-03-29T18:05:53.032Z,13.4
2023-03-29T18:07:58.020Z,13.5
2023-03-29T18:09:59.948Z,13.3
2023-03-29T18:12:01.820Z,13.2
2023-03-29T18:14:03.695Z,13
2023-03-29T18:16:05.876Z,13.3
2023-03-29T18:18:07.479Z,13
2023-03-29T18:20:09.443Z,13.1
2023-03-29T18:22:14.472Z,13
2023-03-29T18:29:22.701Z,13.3
2023-03-29T18:31:24.621Z,13.3
2023-03-29T18:33:26.480Z,12.9
2023-03-29T18:35:31.505Z,13
2023-03-29T18:37:33.396Z,12.9
2023-03-29T18:39:35.295Z,13.1
2023-03-29T18:41:37.177Z,12.8
2023-03-29T18:43:39.033Z,13.2
2023-03-29T18:45:40.971Z,13.1
2023-03-29T18:47:42.862Z,13.1
2023-03-29T18:49:47.844Z,12.7
2023-03-29T18:51:49.761Z,13
2023-03-29T18:53:51.641Z,12.7
2023-03-29T18:55:53.529Z,12.6
2023-03-29T18:57:55.404Z,12.7
2023-03-29T18:59:57.300Z,12.7
2023-03-29T19:01:59.197Z,12.5
2023-03-29T19:04:04.191Z,12.9
2023-03-29T19:06:06.215Z,12.8
2023-03-29T19:08:08.244Z,12.4
2023-03-29T19:10:09.858Z,12.6
2023-03-29T19:12:11.769Z,12.3
2023-03-29T19:14:13.634Z,12.5
2023-03-29T19:18:20.575Z,12.4
2023-03-29T19:20:22.554Z,12.3
2023-03-29T19:22:24.480Z,12.3
2023-03-29T19:23:26.984Z,11.9
2023-03-29T19:25:28.905Z,12.1
2023-03-29T19:27:30.765Z,12.2
2023-03-29T19:29:32.618Z,12.3
2023-03-29T19:31:37.739Z,11.6
2023-03-29T19:35:41.445Z,12
2023-03-29T19:45:54.220Z,11.7
2023-03-29T19:47:56.253Z,11.9
2023-03-29T19:49:58.146Z,12
2023-03-29T19:52:00.066Z,12
2023-03-29T20:00:10.752Z,12
2023-03-29T20:02:12.641Z,11.8
2023-03-29T20:04:14.567Z,11.9
2023-03-29T20:06:16.549Z,11.6
2023-03-29T20:08:18.427Z,11.5
2023-03-29T20:10:20.438Z,11.7
2023-03-29T20:12:22.428Z,11.6
2023-03-29T20:14:27.553Z,11.6
2023-03-29T20:16:29.483Z,11.6
2023-03-29T20:18:31.428Z,11.5
2023-03-29T20:21:02.542Z,11.6
2023-03-29T20:23:04.334Z,11.4
2023-03-29T20:27:09.086Z,12.2
2023-03-29T20:29:11.101Z,11.5
2023-03-29T20:31:13.127Z,11.6
2023-03-29T20:33:14.975Z,11.4
2023-03-29T20:37:18.778Z,11.6
2023-03-29T20:39:21.274Z,11.5
2023-03-29T20:49:33.789Z,11.6
2023-03-29T20:51:38.023Z,11.5
2023-03-29T20:55:42.908Z,11.6
2023-03-29T20:59:46.918Z,11.4
2023-03-29T21:07:54.940Z,11.6
2023-03-29T21:15:06.753Z,11.6
2023-03-29T21:17:08.757Z,11.7
2023-03-29T21:19:10.778Z,11.8
2023-03-29T21:21:12.755Z,12
2023-03-29T21:23:18.327Z,11.6
2023-03-29T21:25:20.325Z,11.9
2023-03-29T21:27:22.350Z,11.7
2023-03-29T21:29:24.218Z,11.7
2023-03-29T21:33:28.209Z,11.8
2023-03-29T21:37:35.233Z,11.7
2023-03-29T21:39:37.094Z,11.8
2023-03-29T21:41:39.102Z,11.8
2023-03-29T21:43:41.010Z,11.7
2023-03-29T21:45:42.971Z,11.7
2023-03-29T21:49:47.046Z,11.8
2023-03-29T21:51:52.205Z,11.6
2023-03-29T21:55:56.170Z,11.5
2023-03-29T21:57:58.185Z,11.8
2023-03-29T22:00:00.187Z,11.7
2023-03-29T22:02:02.148Z,11.4
2023-03-29T22:08:11.203Z,11.7
2023-03-29T22:10:13.203Z,11.6
2023-03-29T22:11:15.828Z,11.6
2023-03-29T22:13:17.864Z,11.5
2023-03-29T22:15:19.804Z,11.3
2023-03-29T22:17:21.816Z,11.7
2023-03-29T22:19:27.050Z,12.1
2023-03-29T22:21:28.999Z,12.2
2023-03-29T22:23:30.969Z,12
2023-03-29T22:25:33.004Z,12.2
2023-03-29T22:27:34.965Z,12.1
2023-03-29T22:31:38.983Z,12.4
2023-03-29T22:33:44.137Z,12.7
2023-03-29T22:37:48.150Z,13.3
2023-03-29T22:39:50.135Z,13.4
2023-03-29T22:41:52.044Z,13.6
2023-03-29T22:45:56.075Z,13.6
2023-03-29T22:48:01.271Z,13.8
2023-03-29T22:50:03.115Z,13.6
2023-03-29T22:54:06.899Z,13.8
2023-03-29T23:07:25.368Z,13.8
2023-03-29T23:09:27.251Z,13.6
2023-03-29T23:11:29.148Z,13.9
2023-03-29T23:13:31.046Z,13.6
2023-03-29T23:15:36.148Z,13.6
2023-03-29T23:17:37.967Z,13.7
2023-03-29T23:19:39.802Z,13.6
2023-03-29T23:21:41.687Z,13.7
2023-03-29T23:23:43.580Z,13.7
2023-03-29T23:25:45.459Z,13.9
2023-03-29T23:27:47.344Z,13.7
2023-03-29T23:29:52.371Z,13.9
2023-03-29T23:31:54.305Z,13.7
2023-03-29T23:33:56.119Z,13.9
2023-03-29T23:35:58.051Z,13.7
2023-03-29T23:37:59.904Z,13.7
2023-03-29T23:40:01.811Z,13.8
2023-03-29T23:42:03.702Z,14
2023-03-29T23:44:08.676Z,13.9
2023-03-29T23:48:12.440Z,14
2023-03-29T23:50:14.307Z,13.9
2023-03-29T23:52:16.211Z,13.6
2023-03-29T23:56:20.022Z,13.9
2023-03-29T23:58:24.998Z,13.7
